createdAt,value
2022-09-06T00:00:24.000Z,135
2022-09-06T00:01:40.000Z,135
2022-09-06T00:02:56.000Z,135
2022-09-06T00:04:12.000Z,132
2022-09-06T00:05:29.000Z,133
2022-09-06T00:06:45.000Z,135
2022-09-06T00:08:01.000Z,135
2022-09-06T00:09:17.000Z,132
2022-09-06T00:10:34.000Z,135
2022-09-06T00:11:50.000Z,133
2022-09-06T00:13:05.000Z,135
2022-09-06T00:14:21.000Z,137
2022-09-06T00:15:37.000Z,134
2022-09-06T00:16:54.000Z,130
2022-09-06T00:18:10.000Z,136
2022-09-06T00:19:26.000Z,136
2022-09-06T00:20:42.000Z,135
2022-09-06T00:21:59.000Z,137
2022-09-06T00:23:15.000Z,136
2022-09-06T00:24:31.000Z,134
2022-09-06T00:25:47.000Z,136
2022-09-06T00:27:04.000Z,135
2022-09-06T00:28:20.338Z,136
2022-09-06T00:29:35.000Z,134
2022-09-06T00:30:51.000Z,133
2022-09-06T00:32:08.000Z,135
2022-09-06T00:33:24.000Z,135
2022-09-06T00:34:40.000Z,131
2022-09-06T00:35:56.000Z,136
2022-09-06T00:37:12.000Z,136
2022-09-06T00:38:29.000Z,136
2022-09-06T00:39:45.000Z,134
2022-09-06T00:41:01.000Z,135
2022-09-06T00:42:17.000Z,135
2022-09-06T00:43:34.000Z,136
2022-09-06T00:44:50.000Z,136
2022-09-06T00:46:05.000Z,136
2022-09-06T00:47:21.000Z,135
2022-09-06T00:48:38.000Z,136
2022-09-06T00:49:54.000Z,136
2022-09-06T00:51:10.000Z,135
2022-09-06T00:52:26.000Z,132
2022-09-06T00:53:43.000Z,132
2022-09-06T00:54:59.000Z,136
2022-09-06T00:56:15.000Z,136
2022-09-06T00:57:31.000Z,136
2022-09-06T00:58:47.000Z,135
2022-09-06T01:00:04.000Z,137
2022-09-06T01:01:20.000Z,136
2022-09-06T01:02:35.000Z,133
2022-09-06T01:03:51.000Z,133
2022-09-06T01:05:08.000Z,136
2022-09-06T01:06:24.000Z,136
2022-09-06T01:07:40.000Z,136
2022-09-06T01:08:56.000Z,136
2022-09-06T01:10:13.000Z,135
2022-09-06T01:11:29.000Z,135
2022-09-06T01:12:45.000Z,133
2022-09-06T01:14:01.000Z,129
2022-09-06T01:15:18.000Z,131
2022-09-06T01:16:34.000Z,135
2022-09-06T01:17:50.000Z,135
2022-09-06T01:19:05.000Z,133
2022-09-06T01:20:21.000Z,135
2022-09-06T01:21:38.000Z,134
2022-09-06T01:22:54.000Z,135
2022-09-06T01:24:10.000Z,137
2022-09-06T01:25:26.000Z,135
2022-09-06T01:26:43.000Z,134
2022-09-06T01:27:59.000Z,135
2022-09-06T01:29:15.000Z,135
2022-09-06T01:30:31.000Z,134
2022-09-06T01:31:48.000Z,137
2022-09-06T01:33:04.000Z,137
2022-09-06T01:34:20.000Z,134
2022-09-06T01:35:35.000Z,135
2022-09-06T01:36:52.000Z,134
2022-09-06T01:38:08.000Z,134
2022-09-06T01:39:24.000Z,132
2022-09-06T01:40:40.000Z,136
2022-09-06T01:41:56.000Z,136
2022-09-06T01:43:13.000Z,135
2022-09-06T01:44:29.000Z,135
2022-09-06T01:45:45.000Z,137
2022-09-06T01:47:01.000Z,136
2022-09-06T01:48:18.000Z,135
2022-09-06T01:49:34.000Z,136
2022-09-06T01:50:50.000Z,137
2022-09-06T01:52:05.000Z,135
2022-09-06T01:53:22.000Z,132
2022-09-06T01:54:38.000Z,136
2022-09-06T01:55:54.000Z,134
2022-09-06T01:57:10.000Z,136
2022-09-06T01:58:27.000Z,135
2022-09-06T01:59:43.000Z,136
2022-09-06T02:00:59.000Z,136
2022-09-06T02:02:15.000Z,136
2022-09-06T02:03:31.000Z,137
2022-09-06T02:04:48.000Z,135
2022-09-06T02:06:04.000Z,136
2022-09-06T02:07:20.000Z,135
2022-09-06T02:08:35.000Z,136
2022-09-06T02:09:52.000Z,133
2022-09-06T02:11:08.000Z,136
2022-09-06T02:12:24.000Z,135
2022-09-06T02:13:40.000Z,133
2022-09-06T02:14:57.000Z,134
2022-09-06T02:16:13.000Z,135
2022-09-06T02:17:29.000Z,135
2022-09-06T02:18:45.000Z,133
2022-09-06T02:20:02.000Z,136
2022-09-06T02:21:18.000Z,137
2022-09-06T02:22:34.000Z,137
2022-09-06T02:23:50.000Z,136
2022-09-06T02:25:05.000Z,135
2022-09-06T02:26:22.000Z,136
2022-09-06T02:27:38.000Z,135
2022-09-06T02:28:54.000Z,135
2022-09-06T02:30:10.000Z,137
2022-09-06T02:31:27.000Z,135
2022-09-06T02:32:43.000Z,135
2022-09-06T02:33:59.000Z,134
2022-09-06T02:35:15.000Z,135
2022-09-06T02:36:32.000Z,136
2022-09-06T02:37:48.000Z,135
2022-09-06T02:39:04.000Z,135
2022-09-06T02:40:20.000Z,136
2022-09-06T02:41:35.000Z,135
2022-09-06T02:42:52.000Z,135
2022-09-06T02:44:08.000Z,135
2022-09-06T02:45:24.000Z,132
2022-09-06T02:46:40.000Z,135
2022-09-06T02:47:57.000Z,135
2022-09-06T02:49:13.000Z,136
2022-09-06T02:50:29.000Z,137
2022-09-06T02:51:45.000Z,137
2022-09-06T02:53:02.000Z,136
2022-09-06T02:54:18.000Z,135
2022-09-06T02:55:34.000Z,135
2022-09-06T02:56:50.000Z,135
2022-09-06T02:58:06.000Z,135
2022-09-06T02:59:22.000Z,136
2022-09-06T03:00:38.000Z,135
2022-09-06T03:01:54.000Z,135
2022-09-06T03:03:10.000Z,135
2022-09-06T03:04:27.000Z,135
2022-09-06T03:05:43.000Z,136
2022-09-06T03:06:59.000Z,135
2022-09-06T03:08:15.000Z,135
2022-09-06T03:09:32.000Z,133
2022-09-06T03:10:48.000Z,136
2022-09-06T03:12:04.000Z,134
2022-09-06T03:13:20.000Z,131
2022-09-06T03:14:37.000Z,131
2022-09-06T03:15:52.000Z,135
2022-09-06T03:17:08.000Z,135
2022-09-06T03:18:24.000Z,135
2022-09-06T03:19:41.000Z,135
2022-09-06T03:20:57.000Z,132
2022-09-06T03:22:13.000Z,135
2022-09-06T03:23:29.000Z,136
2022-09-06T03:24:45.000Z,137
2022-09-06T03:26:02.000Z,136
2022-09-06T03:27:18.000Z,136
2022-09-06T03:28:34.000Z,134
2022-09-06T03:29:50.000Z,136
2022-09-06T03:31:07.000Z,136
2022-09-06T03:32:22.000Z,135
2022-09-06T03:33:38.000Z,136
2022-09-06T03:34:54.000Z,135
2022-09-06T03:36:11.000Z,136
2022-09-06T03:37:27.000Z,134
2022-09-06T03:38:43.000Z,135
2022-09-06T03:39:59.000Z,136
2022-09-06T03:41:16.000Z,136
2022-09-06T03:42:32.000Z,131
2022-09-06T03:43:48.000Z,136
2022-09-06T03:45:04.000Z,135
2022-09-06T03:46:20.000Z,136
2022-09-06T03:47:37.000Z,136
2022-09-06T03:48:52.000Z,136
2022-09-06T03:50:08.000Z,135
2022-09-06T03:51:24.000Z,134
2022-09-06T03:52:41.000Z,135
2022-09-06T03:53:57.000Z,132
2022-09-06T03:55:12.000Z,132
2022-09-06T03:56:28.000Z,132
2022-09-06T03:57:44.000Z,135
2022-09-06T03:58:59.000Z,134
2022-09-06T04:00:15.000Z,136
2022-09-06T04:01:31.000Z,133
2022-09-06T04:02:48.000Z,130
2022-09-06T04:04:04.000Z,136
2022-09-06T04:05:20.000Z,135
2022-09-06T04:06:35.000Z,136
2022-09-06T04:07:51.000Z,134
2022-09-06T04:09:07.000Z,132
2022-09-06T04:10:23.000Z,136
2022-09-06T04:11:39.000Z,135
2022-09-06T04:12:55.000Z,134
2022-09-06T04:14:12.000Z,136
2022-09-06T04:15:28.000Z,136
2022-09-06T04:16:44.000Z,136
2022-09-06T04:18:00.000Z,137
2022-09-06T04:19:17.000Z,135
2022-09-06T04:20:33.000Z,136
2022-09-06T04:21:49.000Z,137
2022-09-06T04:23:05.000Z,136
2022-09-06T04:24:21.000Z,137
2022-09-06T04:25:37.000Z,138
2022-09-06T04:26:53.000Z,137
2022-09-06T04:28:09.000Z,138
2022-09-06T04:29:26.000Z,137
2022-09-06T04:30:42.000Z,139
2022-09-06T04:31:58.000Z,138
2022-09-06T04:33:14.000Z,138
2022-09-06T04:34:30.000Z,141
2022-09-06T04:35:47.000Z,144
2022-09-06T04:37:03.000Z,145
2022-09-06T04:38:19.000Z,146
2022-09-06T04:39:35.000Z,149
2022-09-06T04:40:51.000Z,154
2022-09-06T04:42:07.000Z,156
2022-09-06T04:43:23.000Z,157
2022-09-06T04:44:39.000Z,159
2022-09-06T04:45:56.000Z,162
2022-09-06T04:47:12.000Z,134
2022-09-06T04:48:28.000Z,33
2022-09-06T04:49:44.000Z,37
2022-09-06T04:51:01.000Z,42
2022-09-06T04:52:17.000Z,48
2022-09-06T04:53:33.000Z,53
2022-09-06T04:54:49.000Z,58
2022-09-06T04:56:05.000Z,62
2022-09-06T04:57:21.000Z,64
2022-09-06T04:58:37.000Z,69
2022-09-06T04:59:53.000Z,74
2022-09-06T05:01:09.000Z,77
2022-09-06T05:02:26.000Z,83
2022-09-06T05:03:42.000Z,92
2022-09-06T05:04:58.000Z,100
2022-09-06T05:06:14.000Z,104
2022-09-06T05:07:31.000Z,111
2022-09-06T05:08:47.000Z,113
2022-09-06T05:10:03.000Z,114
2022-09-06T05:11:19.000Z,113
2022-09-06T05:12:36.000Z,113
2022-09-06T05:13:51.000Z,123
2022-09-06T05:15:07.000Z,142
2022-09-06T05:16:23.000Z,150
2022-09-06T05:17:39.000Z,160
2022-09-06T05:18:56.000Z,195
2022-09-06T05:20:12.000Z,250
2022-09-06T05:21:28.000Z,294
2022-09-06T05:22:44.000Z,319
2022-09-06T05:24:01.000Z,335
2022-09-06T05:25:17.000Z,340
2022-09-06T05:26:33.000Z,340
2022-09-06T05:27:49.000Z,328
2022-09-06T05:29:06.000Z,311
2022-09-06T05:30:21.000Z,312
2022-09-06T05:31:37.000Z,314
2022-09-06T05:32:53.000Z,325
2022-09-06T05:34:10.000Z,340
2022-09-06T05:35:26.000Z,347
2022-09-06T05:36:42.000Z,353
2022-09-06T05:37:57.000Z,358
2022-09-06T05:39:13.000Z,362
2022-09-06T05:40:29.000Z,367
2022-09-06T05:41:44.000Z,376
2022-09-06T05:42:59.000Z,394
2022-09-06T05:44:15.000Z,415
2022-09-06T05:45:32.000Z,442
2022-09-06T05:46:48.000Z,469
2022-09-06T05:48:04.000Z,504
2022-09-06T05:49:20.000Z,550
2022-09-06T05:50:37.000Z,598
2022-09-06T05:51:53.000Z,643
2022-09-06T05:53:09.000Z,684
2022-09-06T05:54:25.000Z,721
2022-09-06T05:55:42.000Z,735
2022-09-06T05:56:58.000Z,773
2022-09-06T05:58:14.000Z,849
2022-09-06T05:59:29.000Z,961
2022-09-06T06:00:46.000Z,1061
2022-09-06T06:02:02.275Z,1139
2022-09-06T06:03:18.000Z,1184
2022-09-06T06:04:34.000Z,1248
2022-09-06T06:05:50.000Z,1288
2022-09-06T06:07:07.000Z,1340
2022-09-06T06:08:22.000Z,1440
2022-09-06T06:09:37.000Z,1586
2022-09-06T06:10:53.000Z,1688
2022-09-06T06:12:09.000Z,1723
2022-09-06T06:13:24.000Z,1731
2022-09-06T06:14:40.000Z,1679
2022-09-06T06:15:56.000Z,1568
2022-09-06T06:17:13.000Z,1421
2022-09-06T06:18:29.000Z,1279
2022-09-06T06:19:45.000Z,1198
2022-09-06T06:21:01.000Z,1161
2022-09-06T06:22:18.000Z,1153
2022-09-06T06:23:34.000Z,1190
2022-09-06T06:24:50.000Z,1295
2022-09-06T06:26:06.000Z,1468
2022-09-06T06:27:23.000Z,1653
2022-09-06T06:28:39.000Z,1801
2022-09-06T06:29:54.000Z,1986
2022-09-06T06:31:10.000Z,2248
2022-09-06T06:32:26.000Z,2408
2022-09-06T06:33:43.000Z,2500
2022-09-06T06:34:59.000Z,2575
2022-09-06T06:36:15.000Z,2622
2022-09-06T06:37:31.000Z,2659
2022-09-06T06:38:47.000Z,2637
2022-09-06T06:40:02.000Z,2619
2022-09-06T06:41:18.000Z,2619
2022-09-06T06:42:34.000Z,2605
2022-09-06T06:43:50.000Z,2567
2022-09-06T06:45:05.000Z,2554
2022-09-06T06:46:21.000Z,2620
2022-09-06T06:47:37.000Z,2716
2022-09-06T06:48:54.000Z,2901
2022-09-06T06:50:10.000Z,3093
2022-09-06T06:51:26.000Z,3292
2022-09-06T06:52:42.000Z,3510
2022-09-06T06:53:59.000Z,3729
2022-09-06T06:55:15.000Z,3818
2022-09-06T06:56:31.000Z,3915
2022-09-06T06:57:47.000Z,4022
2022-09-06T06:59:03.000Z,4129
2022-09-06T07:00:20.000Z,4224
2022-09-06T07:01:35.000Z,4301
2022-09-06T07:02:51.000Z,4294
2022-09-06T07:04:07.000Z,4202
2022-09-06T07:05:24.000Z,3981
2022-09-06T07:06:40.000Z,3709
2022-09-06T07:07:56.000Z,3483
2022-09-06T07:09:12.000Z,3292
2022-09-06T07:10:28.000Z,3130
2022-09-06T07:11:43.000Z,3002
2022-09-06T07:12:59.000Z,2899
2022-09-06T07:14:15.000Z,2816
2022-09-06T07:15:32.000Z,2734
2022-09-06T07:16:48.000Z,2667
2022-09-06T07:18:04.000Z,2613
2022-09-06T07:19:20.000Z,2572
2022-09-06T07:20:37.000Z,2540
2022-09-06T07:21:53.000Z,2513
2022-09-06T07:23:09.000Z,2475
2022-09-06T07:24:25.000Z,2431
2022-09-06T07:25:41.000Z,2595
2022-09-06T07:26:58.000Z,2613
2022-09-06T07:28:13.000Z,2485
2022-09-06T07:29:29.000Z,2522
2022-09-06T07:30:45.000Z,2536
2022-09-06T07:32:02.000Z,2668
2022-09-06T07:33:18.000Z,2752
2022-09-06T07:34:34.000Z,2923
2022-09-06T07:35:50.000Z,2976
2022-09-06T07:37:06.000Z,2981
2022-09-06T07:38:21.000Z,2974
2022-09-06T07:39:37.000Z,2965
2022-09-06T07:40:52.000Z,2966
2022-09-06T07:42:08.000Z,2968
2022-09-06T07:43:23.000Z,2966
2022-09-06T07:44:38.000Z,2977
2022-09-06T07:45:54.000Z,2993
2022-09-06T07:47:11.000Z,2991
2022-09-06T07:48:27.000Z,2995
2022-09-06T07:49:43.000Z,2996
2022-09-06T07:50:59.000Z,3003
2022-09-06T07:52:16.000Z,3010
2022-09-06T07:53:32.000Z,3013
2022-09-06T07:54:48.000Z,3009
2022-09-06T07:56:04.000Z,3009
2022-09-06T07:57:20.000Z,3009
2022-09-06T07:58:37.000Z,3011
2022-09-06T07:59:53.000Z,3016
2022-09-06T08:01:08.000Z,3012
2022-09-06T08:02:24.000Z,2993
2022-09-06T08:03:41.000Z,2984
2022-09-06T08:04:57.000Z,2980
2022-09-06T08:06:13.000Z,2980
2022-09-06T08:07:29.000Z,2982
2022-09-06T08:08:46.000Z,2988
2022-09-06T08:10:02.000Z,2992
2022-09-06T08:11:18.000Z,2996
2022-09-06T08:12:33.000Z,2993
2022-09-06T08:13:49.000Z,2997
2022-09-06T08:15:04.000Z,3005
2022-09-06T08:16:19.000Z,3001
2022-09-06T08:17:35.000Z,2997
2022-09-06T08:18:52.000Z,2994
2022-09-06T08:20:08.000Z,2991
2022-09-06T08:21:24.000Z,2995
2022-09-06T08:22:40.000Z,2996
2022-09-06T08:23:56.000Z,2993
2022-09-06T08:25:13.000Z,2992
2022-09-06T08:26:29.000Z,2990
2022-09-06T08:27:45.000Z,2989
2022-09-06T08:29:01.000Z,2984
2022-09-06T08:30:18.000Z,2984
2022-09-06T08:31:34.000Z,2987
2022-09-06T08:32:49.000Z,2987
2022-09-06T08:34:05.000Z,2985
2022-09-06T08:35:22.000Z,2988
2022-09-06T08:36:38.000Z,2995
2022-09-06T08:37:54.000Z,3002
2022-09-06T08:39:10.000Z,3003
2022-09-06T08:40:27.000Z,3006
2022-09-06T08:41:43.000Z,3012
2022-09-06T08:42:59.000Z,3020
2022-09-06T08:44:15.000Z,3025
2022-09-06T08:45:31.000Z,3022
2022-09-06T08:46:48.000Z,3036
2022-09-06T08:48:04.000Z,3058
2022-09-06T08:49:19.000Z,3059
2022-09-06T08:50:35.000Z,3068
2022-09-06T08:51:51.000Z,3078
2022-09-06T08:53:06.000Z,3084
2022-09-06T08:54:22.000Z,3093
2022-09-06T08:55:37.000Z,3097
2022-09-06T08:56:53.000Z,3097
2022-09-06T08:58:09.000Z,3092
2022-09-06T08:59:25.000Z,3089
2022-09-06T09:00:41.000Z,3090
2022-09-06T09:01:58.000Z,3087
2022-09-06T09:03:14.000Z,3086
2022-09-06T09:04:30.000Z,3095
2022-09-06T09:05:46.000Z,3107
2022-09-06T09:07:03.000Z,3115
2022-09-06T09:08:19.000Z,3121
2022-09-06T09:09:35.000Z,3125
2022-09-06T09:10:51.000Z,3129
2022-09-06T09:12:07.000Z,3138
2022-09-06T09:13:23.000Z,3148
2022-09-06T09:14:39.000Z,3142
2022-09-06T09:15:55.000Z,3136
2022-09-06T09:17:11.000Z,3130
2022-09-06T09:18:28.000Z,3126
2022-09-06T09:19:44.000Z,3120
2022-09-06T09:21:00.000Z,3119
2022-09-06T09:22:16.000Z,3117
2022-09-06T09:23:32.000Z,3126
2022-09-06T09:24:47.000Z,3136
2022-09-06T09:26:02.000Z,3136
2022-09-06T09:27:17.000Z,3142
2022-09-06T09:28:34.000Z,3153
2022-09-06T09:29:50.000Z,3165
2022-09-06T09:31:06.000Z,3163
2022-09-06T09:32:22.000Z,3160
2022-09-06T09:33:39.000Z,3160
2022-09-06T09:34:55.000Z,3171
2022-09-06T09:36:11.000Z,3177
2022-09-06T09:37:27.000Z,3182
2022-09-06T09:38:44.000Z,3183
2022-09-06T09:40:00.000Z,3182
2022-09-06T09:41:16.000Z,3181
2022-09-06T09:42:32.000Z,3189
2022-09-06T09:43:47.000Z,3206
2022-09-06T09:45:04.000Z,3199
2022-09-06T09:46:20.000Z,3193
2022-09-06T09:47:36.000Z,3188
2022-09-06T09:48:52.000Z,3197
2022-09-06T09:50:09.000Z,3212
2022-09-06T09:51:25.000Z,3218
2022-09-06T09:52:41.000Z,3215
2022-09-06T09:53:57.000Z,3222
2022-09-06T09:55:14.000Z,3237
2022-09-06T09:56:30.000Z,3236
2022-09-06T09:57:46.000Z,3224
2022-09-06T09:59:02.000Z,3223
2022-09-06T10:00:18.000Z,3224
2022-09-06T10:01:34.000Z,3211
2022-09-06T10:02:50.000Z,3210
2022-09-06T10:04:06.000Z,3216
2022-09-06T10:05:22.000Z,3219
2022-09-06T10:06:39.000Z,3228
2022-09-06T10:07:55.000Z,3239
2022-09-06T10:09:10.000Z,3242
2022-09-06T10:10:25.000Z,3233
2022-09-06T10:11:41.000Z,3234
2022-09-06T10:12:56.000Z,3229
2022-09-06T10:14:12.000Z,3235
2022-09-06T10:15:28.000Z,3246
2022-09-06T10:16:45.000Z,3269
2022-09-06T10:18:01.000Z,3299
2022-09-06T10:19:17.000Z,3316
2022-09-06T10:20:33.000Z,3333
2022-09-06T10:21:50.000Z,3351
2022-09-06T10:23:06.000Z,3360
2022-09-06T10:24:22.000Z,3361
2022-09-06T10:25:38.000Z,3365
2022-09-06T10:26:54.000Z,3363
2022-09-06T10:28:11.000Z,3370
2022-09-06T10:29:26.000Z,3377
2022-09-06T10:30:42.000Z,3384
2022-09-06T10:31:58.000Z,3407
2022-09-06T10:33:15.000Z,3431
2022-09-06T10:34:31.000Z,3455
2022-09-06T10:35:47.000Z,3469
2022-09-06T10:37:03.000Z,3486
2022-09-06T10:38:19.000Z,3507
2022-09-06T10:39:34.000Z,3542
2022-09-06T10:40:49.000Z,3564
2022-09-06T10:42:04.000Z,3585
2022-09-06T10:43:21.000Z,3600
2022-09-06T10:44:37.000Z,3608
2022-09-06T10:45:53.000Z,3632
2022-09-06T10:47:09.000Z,3657
2022-09-06T10:48:26.000Z,3675
2022-09-06T10:49:42.000Z,3696
2022-09-06T10:50:58.000Z,3708
2022-09-06T10:52:14.000Z,3705
2022-09-06T10:53:31.000Z,3709
2022-09-06T10:54:47.000Z,3708
2022-09-06T10:56:03.000Z,3712
2022-09-06T10:57:19.000Z,3714
2022-09-06T10:58:34.000Z,3721
2022-09-06T10:59:51.000Z,3743
2022-09-06T11:01:07.000Z,3765
2022-09-06T11:02:23.000Z,3801
2022-09-06T11:03:39.000Z,3840
2022-09-06T11:04:56.000Z,3864
2022-09-06T11:06:12.000Z,3889
2022-09-06T11:07:27.000Z,3912
2022-09-06T11:08:42.000Z,3933
2022-09-06T11:09:59.000Z,3960
2022-09-06T11:11:14.000Z,3979
2022-09-06T11:12:29.000Z,3988
2022-09-06T11:13:45.000Z,3993
2022-09-06T11:15:02.000Z,4004
2022-09-06T11:16:18.000Z,3998
2022-09-06T11:17:34.000Z,3992
2022-09-06T11:18:50.000Z,3985
2022-09-06T11:20:07.000Z,3979
2022-09-06T11:21:23.000Z,3983
2022-09-06T11:22:39.000Z,3989
2022-09-06T11:23:55.000Z,3998
2022-09-06T11:25:11.000Z,3994
2022-09-06T11:26:28.000Z,3995
2022-09-06T11:27:44.000Z,4000
2022-09-06T11:28:59.000Z,4027
2022-09-06T11:30:15.000Z,4063
2022-09-06T11:31:32.000Z,4088
2022-09-06T11:32:48.000Z,4081
2022-09-06T11:34:04.000Z,4074
2022-09-06T11:35:20.000Z,4070
2022-09-06T11:36:37.000Z,4076
2022-09-06T11:37:52.000Z,4087
2022-09-06T11:39:07.000Z,4092
2022-09-06T11:40:23.000Z,4108
2022-09-06T11:41:40.000Z,4118
2022-09-06T11:42:55.000Z,4108
2022-09-06T11:44:10.000Z,4108
2022-09-06T11:45:26.000Z,4099
2022-09-06T11:46:43.000Z,4074
2022-09-06T11:47:59.000Z,4075
2022-09-06T11:49:15.000Z,4076
2022-09-06T11:50:31.000Z,4088
2022-09-06T11:51:47.000Z,4091
2022-09-06T11:53:04.000Z,4104
2022-09-06T11:54:20.000Z,4122
2022-09-06T11:55:36.000Z,4139
2022-09-06T11:56:52.000Z,4142
2022-09-06T11:58:09.000Z,4152
2022-09-06T11:59:25.000Z,4158
2022-09-06T12:00:40.000Z,4154
2022-09-06T12:01:56.000Z,4149
2022-09-06T12:03:13.000Z,4145
2022-09-06T12:04:29.000Z,4147
2022-09-06T12:05:45.000Z,4162
2022-09-06T12:07:01.000Z,4169
2022-09-06T12:08:18.000Z,4156
2022-09-06T12:09:34.000Z,4143
2022-09-06T12:10:50.000Z,4142
2022-09-06T12:12:06.000Z,4135
2022-09-06T12:13:22.000Z,4132
2022-09-06T12:14:39.000Z,4131
2022-09-06T12:15:55.000Z,4134
2022-09-06T12:17:10.000Z,4159
2022-09-06T12:18:26.000Z,4168
2022-09-06T12:19:43.000Z,4175
2022-09-06T12:20:59.000Z,4190
2022-09-06T12:22:15.000Z,4201
2022-09-06T12:23:31.000Z,4197
2022-09-06T12:24:48.000Z,4195
2022-09-06T12:26:04.000Z,4196
2022-09-06T12:27:19.000Z,4175
2022-09-06T12:28:35.000Z,4187
2022-09-06T12:29:52.000Z,4202
2022-09-06T12:31:08.000Z,4226
2022-09-06T12:32:24.000Z,4240
2022-09-06T12:33:40.000Z,4256
2022-09-06T12:34:56.000Z,4274
2022-09-06T12:36:13.000Z,4287
2022-09-06T12:37:29.000Z,4306
2022-09-06T12:38:45.000Z,4318
2022-09-06T12:40:00.000Z,4340
2022-09-06T12:41:16.000Z,4377
2022-09-06T12:42:32.000Z,4409
2022-09-06T12:43:47.000Z,4430
2022-09-06T12:45:02.000Z,4400
2022-09-06T12:46:19.000Z,4446
2022-09-06T12:47:35.000Z,4728
2022-09-06T12:48:51.000Z,4859
2022-09-06T12:50:07.000Z,4938
2022-09-06T12:51:24.000Z,5194
2022-09-06T12:52:40.000Z,5349
2022-09-06T12:53:56.000Z,5217
2022-09-06T12:55:12.000Z,4978
2022-09-06T12:56:29.000Z,4777
2022-09-06T12:57:45.000Z,4801
2022-09-06T12:59:01.000Z,4965
2022-09-06T13:00:17.000Z,5187
2022-09-06T13:01:33.000Z,5315
2022-09-06T13:02:49.000Z,5381
2022-09-06T13:04:05.000Z,5463
2022-09-06T13:05:21.000Z,5580
2022-09-06T13:06:37.000Z,5698
2022-09-06T13:07:54.000Z,5746
2022-09-06T13:09:10.000Z,5706
2022-09-06T13:10:26.000Z,5649
2022-09-06T13:11:42.000Z,5494
2022-09-06T13:12:59.000Z,5204
2022-09-06T13:14:15.000Z,5159
2022-09-06T13:15:31.000Z,5451
2022-09-06T13:16:47.000Z,5536
2022-09-06T13:18:03.000Z,5680
2022-09-06T13:19:19.000Z,5855
2022-09-06T13:20:35.000Z,5934
2022-09-06T13:21:51.000Z,5704
2022-09-06T13:23:07.000Z,5418
2022-09-06T13:24:24.000Z,5331
2022-09-06T13:25:39.000Z,5365
2022-09-06T13:26:54.000Z,5647
2022-09-06T13:28:10.000Z,5843
2022-09-06T13:29:25.000Z,5800
2022-09-06T13:30:41.000Z,5391
2022-09-06T13:31:57.000Z,5043
2022-09-06T13:33:13.000Z,5443
2022-09-06T13:34:30.000Z,6152
2022-09-06T13:35:46.000Z,7216
2022-09-06T13:37:02.000Z,7301
2022-09-06T13:38:18.000Z,8610
2022-09-06T13:39:35.000Z,7461
2022-09-06T13:40:51.000Z,6449
2022-09-06T13:42:07.000Z,5919
2022-09-06T13:43:23.000Z,5870
2022-09-06T13:44:40.000Z,5810
2022-09-06T13:45:55.000Z,6079
2022-09-06T13:47:11.000Z,4389
2022-09-06T13:48:27.000Z,3601
2022-09-06T13:49:44.000Z,23570
2022-09-06T13:51:00.000Z,24476
2022-09-06T13:52:16.000Z,26584
2022-09-06T13:53:32.000Z,29691
2022-09-06T13:54:48.000Z,30881
2022-09-06T13:56:05.000Z,28950
2022-09-06T13:57:21.000Z,29439
2022-09-06T13:58:37.000Z,31965
2022-09-06T13:59:53.000Z,27055
2022-09-06T14:01:10.000Z,27939
2022-09-06T14:02:25.000Z,35464
2022-09-06T14:03:41.000Z,35217
2022-09-06T14:04:57.000Z,28985
2022-09-06T14:06:14.000Z,31894
2022-09-06T14:07:30.000Z,34151
2022-09-06T14:08:46.000Z,31295
2022-09-06T14:10:02.000Z,29228
2022-09-06T14:11:19.000Z,27551
2022-09-06T14:12:35.000Z,28857
2022-09-06T14:13:51.000Z,29476
2022-09-06T14:15:07.000Z,27323
2022-09-06T14:16:23.000Z,29976
2022-09-06T14:17:40.000Z,31057
2022-09-06T14:18:55.000Z,26316
2022-09-06T14:20:11.000Z,31969
2022-09-06T14:21:27.000Z,32422
2022-09-06T14:22:44.000Z,31035
2022-09-06T14:24:00.000Z,27131
2022-09-06T14:25:16.000Z,21843
2022-09-06T14:26:32.000Z,5214
2022-09-06T14:27:49.000Z,5429
2022-09-06T14:29:05.000Z,5753
2022-09-06T14:30:21.000Z,6194
2022-09-06T14:31:37.000Z,3172
2022-09-06T14:32:54.000Z,28515
2022-09-06T14:34:10.000Z,28916
2022-09-06T14:35:25.000Z,32471
2022-09-06T14:36:41.000Z,34959
2022-09-06T14:37:57.000Z,33601
2022-09-06T14:39:14.000Z,26725
2022-09-06T14:40:30.000Z,25197
2022-09-06T14:41:46.000Z,27813
2022-09-06T14:43:02.000Z,26403
2022-09-06T14:44:19.000Z,26227
2022-09-06T14:45:35.000Z,28396
2022-09-06T14:46:51.000Z,23311
2022-09-06T14:48:07.000Z,25819
2022-09-06T14:49:24.000Z,27042
2022-09-06T14:50:40.000Z,24212
2022-09-06T14:51:55.000Z,24265
2022-09-06T14:53:11.000Z,24896
2022-09-06T14:54:28.000Z,27675
2022-09-06T14:55:44.000Z,19698
2022-09-06T14:57:00.000Z,15043
2022-09-06T14:58:16.000Z,13931
2022-09-06T14:59:32.000Z,13627
2022-09-06T15:00:49.000Z,12827
2022-09-06T15:02:05.000Z,11998
2022-09-06T15:03:21.000Z,9825
2022-09-06T15:04:37.000Z,5936
2022-09-06T15:05:54.000Z,5536
2022-09-06T15:07:10.000Z,5724
2022-09-06T15:08:25.000Z,4917
2022-09-06T15:09:41.000Z,7767
2022-09-06T15:10:58.000Z,9673
2022-09-06T15:12:14.000Z,10311
2022-09-06T15:13:30.000Z,10967
2022-09-06T15:14:46.000Z,11114
2022-09-06T15:16:03.000Z,11070
2022-09-06T15:17:19.000Z,10744
2022-09-06T15:18:35.000Z,11274
2022-09-06T15:19:51.000Z,11519
2022-09-06T15:21:07.000Z,11049
2022-09-06T15:22:24.000Z,10422
2022-09-06T15:23:40.000Z,9963
2022-09-06T15:24:55.000Z,9655
2022-09-06T15:26:11.000Z,9507
2022-09-06T15:27:28.000Z,9414
2022-09-06T15:28:44.000Z,9382
2022-09-06T15:30:00.000Z,9310
2022-09-06T15:31:16.000Z,9244
2022-09-06T15:32:33.000Z,9254
2022-09-06T15:33:49.000Z,9282
2022-09-06T15:35:05.000Z,9297
2022-09-06T15:36:21.000Z,9286
2022-09-06T15:37:38.000Z,9260
2022-09-06T15:38:54.000Z,9242
2022-09-06T15:40:10.000Z,9216
2022-09-06T15:41:25.000Z,9112
2022-09-06T15:42:41.000Z,8986
2022-09-06T15:43:58.000Z,8910
2022-09-06T15:45:14.000Z,8838
2022-09-06T15:46:30.000Z,8695
2022-09-06T15:47:46.000Z,6721
2022-09-06T15:49:03.000Z,3958
2022-09-06T15:50:19.000Z,3873
2022-09-06T15:51:35.000Z,3941
2022-09-06T15:52:51.000Z,4039
2022-09-06T15:54:08.000Z,4060
2022-09-06T15:55:24.000Z,4131
2022-09-06T15:56:40.000Z,4357
2022-09-06T15:57:55.000Z,4631
2022-09-06T15:59:12.000Z,4703
2022-09-06T16:00:28.000Z,4099
2022-09-06T16:01:44.000Z,5831
2022-09-06T16:03:00.000Z,4306
2022-09-06T16:04:16.000Z,4423
2022-09-06T16:05:33.000Z,4475
2022-09-06T16:06:49.000Z,4651
2022-09-06T16:08:05.000Z,1842
2022-09-06T16:09:21.000Z,2788
2022-09-06T16:10:38.000Z,13526
2022-09-06T16:11:54.000Z,16250
2022-09-06T16:13:10.000Z,11211
2022-09-06T16:14:25.000Z,15990
2022-09-06T16:15:42.000Z,8443
2022-09-06T16:16:58.000Z,10277
2022-09-06T16:18:14.000Z,12988
2022-09-06T16:19:30.000Z,14978
2022-09-06T16:20:47.000Z,18612
2022-09-06T16:22:03.000Z,15427
2022-09-06T16:23:19.000Z,10693
2022-09-06T16:24:35.000Z,8588
2022-09-06T16:25:51.000Z,7554
2022-09-06T16:27:08.000Z,8652
2022-09-06T16:28:24.000Z,9888
2022-09-06T16:29:40.000Z,10282
2022-09-06T16:30:55.000Z,8154
2022-09-06T16:32:12.000Z,9800
2022-09-06T16:33:28.000Z,10087
2022-09-06T16:34:44.000Z,10012
2022-09-06T16:36:00.000Z,10038
2022-09-06T16:37:17.000Z,10080
2022-09-06T16:38:33.000Z,7266
2022-09-06T16:39:49.000Z,7358
2022-09-06T16:41:05.000Z,8712
2022-09-06T16:42:21.000Z,8534
2022-09-06T16:43:37.000Z,9238
2022-09-06T16:44:53.000Z,8518
2022-09-06T16:46:09.000Z,8482
2022-09-06T16:47:25.000Z,8496
2022-09-06T16:48:42.000Z,8498
2022-09-06T16:49:58.000Z,8483
2022-09-06T16:51:14.000Z,8028
2022-09-06T16:52:30.000Z,8216
2022-09-06T16:53:47.000Z,8020
2022-09-06T16:55:03.000Z,8615
2022-09-06T16:56:19.000Z,8099
2022-09-06T16:57:35.000Z,6775
2022-09-06T16:58:51.000Z,5626
2022-09-06T17:00:07.000Z,4917
2022-09-06T17:01:23.000Z,5053